sensor_id;sensor_type;location;lat;lon;timestamp;pressure;altitude;pressure_sealevel;temperature;humidity
67931;BME280;63902;52.000;5.954;2023-03-03T00:00:26;102085.66;;;-0.20;100.00
67931;BME280;63902;52.000;5.954;2023-03-03T00:01:27;102089.13;;;-0.21;100.00
67931;BME280;63902;52.000;5.954;2023-03-03T00:02:27;102053.88;;;-0.42;100.00
67931;BME280;63902;52.000;5.954;2023-03-03T00:03:28;102093.41;;;-0.24;100.00
67931;BME280;63902;52.000;5.954;2023-03-03T00:04:28;102096.00;;;-0.24;100.00
67931;BME280;63902;52.000;5.954;2023-03-03T00:05:30;102089.03;;;-0.25;100.00
67931;BME280;63902;52.000;5.954;2023-03-03T00:06:31;102090.78;;;-0.24;100.00
67931;BME280;63902;52.000;5.954;2023-03-03T00:07:31;102094.31;;;-0.21;100.00
67931;BME280;63902;52.000;5.954;2023-03-03T00:08:32;102090.88;;;-0.20;100.00
67931;BME280;63902;52.000;5.954;2023-03-03T00:09:32;102099.53;;;-0.21;100.00
67931;BME280;63902;52.000;5.954;2023-03-03T00:10:33;102097.75;;;-0.23;100.00
67931;BME280;63902;52.000;5.954;2023-03-03T00:11:34;102086.31;;;-0.29;100.00
67931;BME280;63902;52.000;5.954;2023-03-03T00:12:34;102095.13;;;-0.24;100.00
67931;BME280;63902;52.000;5.954;2023-03-03T00:13:44;102096.00;;;-0.25;100.00
67931;BME280;63902;52.000;5.954;2023-03-03T00:14:45;102092.53;;;-0.24;100.00
67931;BME280;63902;52.000;5.954;2023-03-03T00:15:46;102095.13;;;-0.24;100.00
67931;BME280;63902;52.000;5.954;2023-03-03T00:16:46;102095.09;;;-0.26;100.00
67931;BME280;63902;52.000;5.954;2023-03-03T00:17:47;102081.09;;;-0.31;100.00
67931;BME280;63902;52.000;5.954;2023-03-03T00:18:48;102094.22;;;-0.26;99.92
67931;BME280;63902;52.000;5.954;2023-03-03T00:19:49;102097.75;;;-0.24;100.00
67931;BME280;63902;52.000;5.954;2023-03-03T00:20:52;102091.59;;;-0.26;100.00
67931;BME280;63902;52.000;5.954;2023-03-03T00:21:56;102089.88;;;-0.26;100.00
67931;BME280;63902;52.000;5.954;2023-03-03T00:23:07;102100.34;;;-0.24;100.00
67931;BME280;63902;52.000;5.954;2023-03-03T00:24:18;102081.88;;;-0.33;100.00
67931;BME280;63902;52.000;5.954;2023-03-03T00:25:27;102086.31;;;-0.31;100.00
67931;BME280;63902;52.000;5.954;2023-03-03T00:26:33;102092.47;;;-0.26;100.00
67931;BME280;63902;52.000;5.954;2023-03-03T00:27:34;102092.47;;;-0.26;100.00
67931;BME280;63902;52.000;5.954;2023-03-03T00:28:45;102089.72;;;-0.32;100.00
67931;BME280;63902;52.000;5.954;2023-03-03T00:29:47;102095.94;;;-0.27;100.00
67931;BME280;63902;52.000;5.954;2023-03-03T00:30:49;102104.63;;;-0.28;100.00
67931;BME280;63902;52.000;5.954;2023-03-03T00:31:50;102100.28;;;-0.27;100.00
67931;BME280;63902;52.000;5.954;2023-03-03T00:32:51;102100.28;;;-0.27;100.00
67931;BME280;63902;52.000;5.954;2023-03-03T00:33:54;102093.25;;;-0.30;100.00
67931;BME280;63902;52.000;5.954;2023-03-03T00:34:57;102098.53;;;-0.27;99.96
67931;BME280;63902;52.000;5.954;2023-03-03T00:36:23;102094.22;;;-0.26;99.98
67931;BME280;63902;52.000;5.954;2023-03-03T00:37:32;102097.69;;;-0.26;99.62
67931;BME280;63902;52.000;5.954;2023-03-03T00:38:33;102091.47;;;-0.32;99.69
67931;BME280;63902;52.000;5.954;2023-03-03T00:39:36;102100.28;;;-0.26;99.64
67931;BME280;63902;52.000;5.954;2023-03-03T00:40:38;102099.41;;;-0.26;99.37
67931;BME280;63902;52.000;5.954;2023-03-03T00:41:39;102102.03;;;-0.26;100.00
67931;BME280;63902;52.000;5.954;2023-03-03T00:42:39;102098.47;;;-0.30;100.00
67931;BME280;63902;52.000;5.954;2023-03-03T00:43:40;102097.63;;;-0.29;100.00
67931;BME280;63902;52.000;5.954;2023-03-03T00:44:43;102104.63;;;-0.28;100.00
67931;BME280;63902;52.000;5.954;2023-03-03T00:45:45;102104.63;;;-0.28;100.00
67931;BME280;63902;52.000;5.954;2023-03-03T00:46:46;102098.41;;;-0.33;100.00
67931;BME280;63902;52.000;5.954;2023-03-03T00:47:47;102104.56;;;-0.31;100.00
67931;BME280;63902;52.000;5.954;2023-03-03T00:48:48;102101.97;;;-0.29;100.00
67931;BME280;63902;52.000;5.954;2023-03-03T00:49:50;102101.94;;;-0.31;100.00
67931;BME280;63902;52.000;5.954;2023-03-03T00:50:52;102108.03;;;-0.29;100.00
67931;BME280;63902;52.000;5.954;2023-03-03T00:51:52;102101.97;;;-0.29;100.00
67931;BME280;63902;52.000;5.954;2023-03-03T00:53:00;102102.84;;;-0.29;99.78
67931;BME280;63902;52.000;5.954;2023-03-03T00:54:01;102092.41;;;-0.29;100.00
67931;BME280;63902;52.000;5.954;2023-03-03T00:55:01;102105.50;;;-0.27;100.00
67931;BME280;63902;52.000;5.954;2023-03-03T00:56:02;102100.22;;;-0.30;100.00
67931;BME280;63902;52.000;5.954;2023-03-03T00:57:02;102077.22;;;-0.47;100.00
67931;BME280;63902;52.000;5.954;2023-03-03T00:58:03;102095.75;;;-0.34;100.00
67931;BME280;63902;52.000;5.954;2023-03-03T00:59:04;102096.69;;;-0.32;100.00
67931;BME280;63902;52.000;5.954;2023-03-03T01:00:07;102098.34;;;-0.36;100.00
67931;BME280;63902;52.000;5.954;2023-03-03T01:01:08;102098.34;;;-0.36;100.00
67931;BME280;63902;52.000;5.954;2023-03-03T01:02:09;102098.25;;;-0.39;100.00
67931;BME280;63902;52.000;5.954;2023-03-03T01:03:12;102096.53;;;-0.38;100.00
67931;BME280;63902;52.000;5.954;2023-03-03T01:04:13;102094.81;;;-0.38;100.00
67931;BME280;63902;52.000;5.954;2023-03-03T01:05:15;102095.66;;;-0.39;100.00
67931;BME280;63902;52.000;5.954;2023-03-03T01:06:16;102085.88;;;-0.48;100.00
67931;BME280;63902;52.000;5.954;2023-03-03T01:07:17;102093.88;;;-0.40;100.00
67931;BME280;63902;52.000;5.954;2023-03-03T01:08:18;102097.34;;;-0.41;100.00
67931;BME280;63902;52.000;5.954;2023-03-03T01:09:19;102099.88;;;-0.42;100.00
67931;BME280;63902;52.000;5.954;2023-03-03T01:10:19;102099.00;;;-0.43;100.00
67931;BME280;63902;52.000;5.954;2023-03-03T01:11:22;102096.38;;;-0.44;100.00
67931;BME280;63902;52.000;5.954;2023-03-03T01:12:23;102099.00;;;-0.43;100.00
67931;BME280;63902;52.000;5.954;2023-03-03T01:13:26;102105.09;;;-0.42;100.00
67931;BME280;63902;52.000;5.954;2023-03-03T01:14:27;102079.69;;;-0.51;100.00
67931;BME280;63902;52.000;5.954;2023-03-03T01:15:29;102100.81;;;-0.42;100.00
67931;BME280;63902;52.000;5.954;2023-03-03T01:16:29;102099.06;;;-0.41;100.00
67931;BME280;63902;52.000;5.954;2023-03-03T01:17:30;102088.44;;;-0.49;100.00
67931;BME280;63902;52.000;5.954;2023-03-03T01:18:31;102098.13;;;-0.43;100.00
67931;BME280;63902;52.000;5.954;2023-03-03T01:19:31;102103.41;;;-0.42;100.00
67931;BME280;63902;52.000;5.954;2023-03-03T01:20:32;102099.88;;;-0.44;100.00
67931;BME280;63902;52.000;5.954;2023-03-03T01:21:32;102098.13;;;-0.43;100.00
67931;BME280;63902;52.000;5.954;2023-03-03T01:22:33;102096.38;;;-0.44;100.00
67931;BME280;63902;52.000;5.954;2023-03-03T01:23:33;102095.53;;;-0.43;100.00
67931;BME280;63902;52.000;5.954;2023-03-03T01:24:34;102084.91;;;-0.51;100.00
67931;BME280;63902;52.000;5.954;2023-03-03T01:25:34;102097.34;;;-0.41;100.00
67931;BME280;63902;52.000;5.954;2023-03-03T01:26:35;102097.34;;;-0.41;100.00
67931;BME280;63902;52.000;5.954;2023-03-03T01:27:35;102102.56;;;-0.41;100.00
67931;BME280;63902;52.000;5.954;2023-03-03T01:28:36;102078.88;;;-0.50;100.00
67931;BME280;63902;52.000;5.954;2023-03-03T01:29:36;102099.00;;;-0.43;100.00
67931;BME280;63902;52.000;5.954;2023-03-03T01:30:38;102098.13;;;-0.43;100.00
67931;BME280;63902;52.000;5.954;2023-03-03T01:31:39;102092.97;;;-0.42;100.00
67931;BME280;63902;52.000;5.954;2023-03-03T01:32:40;102095.59;;;-0.42;100.00
67931;BME280;63902;52.000;5.954;2023-03-03T01:33:40;102096.47;;;-0.41;100.00
67931;BME280;63902;52.000;5.954;2023-03-03T01:34:41;102088.63;;;-0.41;100.00
67931;BME280;63902;52.000;5.954;2023-03-03T01:35:43;102086.84;;;-0.42;100.00
67931;BME280;63902;52.000;5.954;2023-03-03T01:36:44;102094.66;;;-0.44;100.00
67931;BME280;63902;52.000;5.954;2023-03-03T01:37:44;102099.06;;;-0.41;100.00
67931;BME280;63902;52.000;5.954;2023-03-03T01:38:44;102097.34;;;-0.41;100.00
67931;BME280;63902;52.000;5.954;2023-03-03T01:39:48;102103.44;;;-0.40;100.00
67931;BME280;63902;52.000;5.954;2023-03-03T01:40:52;102096.47;;;-0.40;100.00
67931;BME280;63902;52.000;5.954;2023-03-03T01:41:53;102103.47;;;-0.39;100.00
67931;BME280;63902;52.000;5.954;2023-03-03T01:42:53;102101.75;;;-0.38;100.00
67931;BME280;63902;52.000;5.954;2023-03-03T01:43:54;102102.69;;;-0.36;100.00
67931;BME280;63902;52.000;5.954;2023-03-03T01:45:14;102095.72;;;-0.36;100.00
67931;BME280;63902;52.000;5.954;2023-03-03T01:47:55;102101.81;;;-0.35;100.00
67931;BME280;63902;52.000;5.954;2023-03-03T01:49:00;102102.69;;;-0.35;100.00
67931;BME280;63902;52.000;5.954;2023-03-03T01:50:04;102101.00;;;-0.33;100.00
67931;BME280;63902;52.000;5.954;2023-03-03T01:51:14;102112.25;;;-0.34;100.00
67931;BME280;63902;52.000;5.954;2023-03-03T01:52:23;102103.56;;;-0.36;100.00
67931;BME280;63902;52.000;5.954;2023-03-03T01:53:28;102104.44;;;-0.34;100.00
67931;BME280;63902;52.000;5.954;2023-03-03T01:54:34;102100.97;;;-0.34;100.00
67931;BME280;63902;52.000;5.954;2023-03-03T01:55:39;102091.34;;;-0.37;100.00
67931;BME280;63902;52.000;5.954;2023-03-03T01:56:41;102098.34;;;-0.34;100.00
67931;BME280;63902;52.000;5.954;2023-03-03T01:57:45;102097.47;;;-0.36;100.00
67931;BME280;63902;52.000;5.954;2023-03-03T01:58:50;102105.28;;;-0.36;100.00
67931;BME280;63902;52.000;5.954;2023-03-03T01:59:52;102103.56;;;-0.36;100.00
67931;BME280;63902;52.000;5.954;2023-03-03T02:00:56;102099.16;;;-0.37;100.00
67931;BME280;63902;52.000;5.954;2023-03-03T02:01:58;102097.41;;;-0.38;100.00
67931;BME280;63902;52.000;5.954;2023-03-03T02:03:00;102095.72;;;-0.36;100.00
67931;BME280;63902;52.000;5.954;2023-03-03T02:04:01;102095.66;;;-0.39;100.00
67931;BME280;63902;52.000;5.954;2023-03-03T02:05:01;102105.31;;;-0.35;100.00
67931;BME280;63902;52.000;5.954;2023-03-03T02:06:04;102105.31;;;-0.35;100.00
67931;BME280;63902;52.000;5.954;2023-03-03T02:07:09;102096.47;;;-0.40;100.00
67931;BME280;63902;52.000;5.954;2023-03-03T02:08:11;102100.97;;;-0.34;100.00
67931;BME280;63902;52.000;5.954;2023-03-03T02:09:19;102106.22;;;-0.33;100.00
67931;BME280;63902;52.000;5.954;2023-03-03T02:10:21;102111.44;;;-0.33;100.00
67931;BME280;63902;52.000;5.954;2023-03-03T02:11:22;102111.44;;;-0.33;100.00
67931;BME280;63902;52.000;5.954;2023-03-03T02:12:27;102106.22;;;-0.33;100.00
67931;BME280;63902;52.000;5.954;2023-03-03T02:13:30;102101.00;;;-0.33;100.00
67931;BME280;63902;52.000;5.954;2023-03-03T02:14:31;102107.16;;;-0.31;100.00
67931;BME280;63902;52.000;5.954;2023-03-03T02:15:33;102094.81;;;-0.38;100.00
67931;BME280;63902;52.000;5.954;2023-03-03T02:16:34;102107.16;;;-0.31;100.00
67931;BME280;63902;52.000;5.954;2023-03-03T02:17:34;102107.19;;;-0.29;100.00
67931;BME280;63902;52.000;5.954;2023-03-03T02:18:36;102093.94;;;-0.37;100.00
67931;BME280;63902;52.000;5.954;2023-03-03T02:19:42;102108.03;;;-0.29;100.00
67931;BME280;63902;52.000;5.954;2023-03-03T02:20:53;102106.31;;;-0.30;100.00
67931;BME280;63902;52.000;5.954;2023-03-03T02:21:57;102072.81;;;-0.49;100.00
67931;BME280;63902;52.000;5.954;2023-03-03T02:23:03;102103.69;;;-0.30;100.00
67931;BME280;63902;52.000;5.954;2023-03-03T02:24:12;102105.50;;;-0.27;100.00
67931;BME280;63902;52.000;5.954;2023-03-03T02:25:22;102105.50;;;-0.26;100.00
67931;BME280;63902;52.000;5.954;2023-03-03T02:26:29;102108.13;;;-0.26;100.00
67931;BME280;63902;52.000;5.954;2023-03-03T02:27:31;102108.13;;;-0.26;99.87
67931;BME280;63902;52.000;5.954;2023-03-03T02:28:34;102107.28;;;-0.25;100.00
67931;BME280;63902;52.000;5.954;2023-03-03T02:29:35;102095.09;;;-0.26;99.50
67931;BME280;63902;52.000;5.954;2023-03-03T02:30:37;102099.53;;;-0.21;99.87
67931;BME280;63902;52.000;5.954;2023-03-03T02:31:38;102106.50;;;-0.20;100.00
67931;BME280;63902;52.000;5.954;2023-03-03T02:32:39;102117.78;;;-0.21;100.00
67931;BME280;63902;52.000;5.954;2023-03-03T02:33:40;102111.72;;;-0.22;100.00
67931;BME280;63902;52.000;5.954;2023-03-03T02:34:46;102097.69;;;-0.26;99.75
67931;BME280;63902;52.000;5.954;2023-03-03T02:35:46;102109.97;;;-0.21;99.42
67931;BME280;63902;52.000;5.954;2023-03-03T02:36:47;102101.22;;;-0.24;99.49
67931;BME280;63902;52.000;5.954;2023-03-03T02:37:47;102106.50;;;-0.20;99.15
67931;BME280;63902;52.000;5.954;2023-03-03T02:38:50;102101.28;;;-0.20;99.90
67931;BME280;63902;52.000;5.954;2023-03-03T02:39:53;102110.00;;;-0.20;99.56
67931;BME280;63902;52.000;5.954;2023-03-03T02:40:59;102109.97;;;-0.21;99.65
67931;BME280;63902;52.000;5.954;2023-03-03T02:42:07;102083.56;;;-0.35;99.58
67931;BME280;63902;52.000;5.954;2023-03-03T02:43:10;102081.88;;;-0.33;99.71
67931;BME280;63902;52.000;5.954;2023-03-03T02:44:13;102113.53;;;-0.18;99.64
67931;BME280;63902;52.000;5.954;2023-03-03T02:45:14;102112.66;;;-0.18;100.00
67931;BME280;63902;52.000;5.954;2023-03-03T02:46:14;102113.53;;;-0.18;100.00
67931;BME280;63902;52.000;5.954;2023-03-03T02:47:14;102100.34;;;-0.24;99.90
67931;BME280;63902;52.000;5.954;2023-03-03T02:48:15;102072.28;;;-0.36;99.47
67931;BME280;63902;52.000;5.954;2023-03-03T02:49:18;102104.75;;;-0.21;99.31
67931;BME280;63902;52.000;5.954;2023-03-03T02:50:19;102104.84;;;-0.17;99.95
67931;BME280;63902;52.000;5.954;2023-03-03T02:51:19;102114.41;;;-0.17;100.00
67931;BME280;63902;52.000;5.954;2023-03-03T02:52:20;102100.50;;;-0.18;99.45
67931;BME280;63902;52.000;5.954;2023-03-03T02:53:20;102097.75;;;-0.23;100.00
67931;BME280;63902;52.000;5.954;2023-03-03T02:54:23;102106.56;;;-0.17;100.00
67931;BME280;63902;52.000;5.954;2023-03-03T02:55:24;102106.56;;;-0.17;100.00
67931;BME280;63902;52.000;5.954;2023-03-03T02:56:24;102102.22;;;-0.18;100.00
67931;BME280;63902;52.000;5.954;2023-03-03T02:57:26;102106.56;;;-0.17;100.00
67931;BME280;63902;52.000;5.954;2023-03-03T02:58:27;102110.91;;;-0.18;100.00
67931;BME280;63902;52.000;5.954;2023-03-03T02:59:27;102103.09;;;-0.18;100.00
67931;BME280;63902;52.000;5.954;2023-03-03T03:00:28;102097.75;;;-0.24;100.00
67931;BME280;63902;52.000;5.954;2023-03-03T03:01:28;102110.03;;;-0.18;100.00
67931;BME280;63902;52.000;5.954;2023-03-03T03:02:29;102110.91;;;-0.18;100.00
67931;BME280;63902;52.000;5.954;2023-03-03T03:03:29;102117.00;;;-0.17;100.00
67931;BME280;63902;52.000;5.954;2023-03-03T03:04:30;102103.94;;;-0.19;100.00
67931;BME280;63902;52.000;5.954;2023-03-03T03:05:30;102100.41;;;-0.21;100.00
67931;BME280;63902;52.000;5.954;2023-03-03T03:06:31;102108.28;;;-0.19;100.00
67931;BME280;63902;52.000;5.954;2023-03-03T03:07:31;102089.72;;;-0.32;100.00
67931;BME280;63902;52.000;5.954;2023-03-03T03:08:32;102110.91;;;-0.18;100.00
67931;BME280;63902;52.000;5.954;2023-03-03T03:09:32;102117.00;;;-0.17;100.00
67931;BME280;63902;52.000;5.954;2023-03-03T03:10:33;102112.66;;;-0.17;100.00
67931;BME280;63902;52.000;5.954;2023-03-03T03:11:35;102103.94;;;-0.19;100.00
67931;BME280;63902;52.000;5.954;2023-03-03T03:12:37;102115.28;;;-0.17;100.00
67931;BME280;63902;52.000;5.954;2023-03-03T03:13:37;102111.78;;;-0.17;100.00
67931;BME280;63902;52.000;5.954;2023-03-03T03:14:38;102110.00;;;-0.20;100.00
67931;BME280;63902;52.000;5.954;2023-03-03T03:15:38;102112.66;;;-0.17;100.00
67931;BME280;63902;52.000;5.954;2023-03-03T03:16:39;102110.06;;;-0.17;100.00
67931;BME280;63902;52.000;5.954;2023-03-03T03:17:40;102098.69;;;-0.20;100.00
67931;BME280;63902;52.000;5.954;2023-03-03T03:18:40;102108.38;;;-0.16;100.00
67931;BME280;63902;52.000;5.954;2023-03-03T03:19:41;102078.44;;;-0.32;100.00
67931;BME280;63902;52.000;5.954;2023-03-03T03:20:41;102086.31;;;-0.31;100.00
67931;BME280;63902;52.000;5.954;2023-03-03T03:21:41;102095.09;;;-0.26;100.00
67931;BME280;63902;52.000;5.954;2023-03-03T03:22:42;102108.31;;;-0.18;100.00
67931;BME280;63902;52.000;5.954;2023-03-03T03:23:42;102108.31;;;-0.18;100.00
67931;BME280;63902;52.000;5.954;2023-03-03T03:24:43;102086.19;;;-0.34;100.00
67931;BME280;63902;52.000;5.954;2023-03-03T03:25:43;102105.63;;;-0.21;100.00
67931;BME280;63902;52.000;5.954;2023-03-03T03:26:44;102115.31;;;-0.15;100.00
67931;BME280;63902;52.000;5.954;2023-03-03T03:27:46;102114.47;;;-0.14;100.00
67931;BME280;63902;52.000;5.954;2023-03-03T03:28:46;102108.31;;;-0.18;100.00
67931;BME280;63902;52.000;5.954;2023-03-03T03:29:47;102113.66;;;-0.13;100.00
67931;BME280;63902;52.000;5.954;2023-03-03T03:30:50;102107.44;;;-0.17;100.00
67931;BME280;63902;52.000;5.954;2023-03-03T03:31:51;102096.81;;;-0.26;100.00
67931;BME280;63902;52.000;5.954;2023-03-03T03:32:51;102112.78;;;-0.14;100.00
67931;BME280;63902;52.000;5.954;2023-03-03T03:33:52;102110.19;;;-0.12;100.00
67931;BME280;63902;52.000;5.954;2023-03-03T03:34:52;102116.28;;;-0.12;100.00
67931;BME280;63902;52.000;5.954;2023-03-03T03:35:52;102110.19;;;-0.12;100.00
67931;BME280;63902;52.000;5.954;2023-03-03T03:36:53;102075.81;;;-0.32;100.00
67931;BME280;63902;52.000;5.954;2023-03-03T03:37:53;102108.44;;;-0.13;100.00
67931;BME280;63902;52.000;5.954;2023-03-03T03:38:54;102109.38;;;-0.10;100.00
67931;BME280;63902;52.000;5.954;2023-03-03T03:39:54;102111.94;;;-0.11;100.00
67931;BME280;63902;52.000;5.954;2023-03-03T03:40:55;102104.97;;;-0.12;100.00
67931;BME280;63902;52.000;5.954;2023-03-03T03:41:55;102107.63;;;-0.11;100.00
67931;BME280;63902;52.000;5.954;2023-03-03T03:42:57;102102.34;;;-0.12;100.00
67931;BME280;63902;52.000;5.954;2023-03-03T03:43:57;102109.31;;;-0.13;100.00
67931;BME280;63902;52.000;5.954;2023-03-03T03:44:58;102104.97;;;-0.12;100.00
67931;BME280;63902;52.000;5.954;2023-03-03T03:45:58;102109.31;;;-0.11;100.00
67931;BME280;63902;52.000;5.954;2023-03-03T03:46:59;102110.22;;;-0.11;100.00
67931;BME280;63902;52.000;5.954;2023-03-03T03:47:59;102114.53;;;-0.11;100.00
67931;BME280;63902;52.000;5.954;2023-03-03T03:49:00;102124.97;;;-0.11;100.00
67931;BME280;63902;52.000;5.954;2023-03-03T03:50:00;102118.94;;;-0.10;100.00
67931;BME280;63902;52.000;5.954;2023-03-03T03:51:01;102120.69;;;-0.09;100.00
67931;BME280;63902;52.000;5.954;2023-03-03T03:52:02;102104.97;;;-0.12;100.00
67931;BME280;63902;52.000;5.954;2023-03-03T03:53:03;102115.47;;;-0.09;100.00
67931;BME280;63902;52.000;5.954;2023-03-03T03:54:04;102114.59;;;-0.10;100.00
67931;BME280;63902;52.000;5.954;2023-03-03T03:55:05;102115.47;;;-0.09;100.00
67931;BME280;63902;52.000;5.954;2023-03-03T03:56:06;102108.50;;;-0.10;100.00
67931;BME280;63902;52.000;5.954;2023-03-03T03:57:07;102119.84;;;-0.08;100.00
67931;BME280;63902;52.000;5.954;2023-03-03T03:58:11;102117.25;;;-0.08;100.00
67931;BME280;63902;52.000;5.954;2023-03-03T03:59:11;102104.03;;;-0.16;100.00
67931;BME280;63902;52.000;5.954;2023-03-03T04:00:12;102115.47;;;-0.09;100.00
67931;BME280;63902;52.000;5.954;2023-03-03T04:01:13;102118.00;;;-0.12;100.00
67931;BME280;63902;52.000;5.954;2023-03-03T04:02:13;102110.25;;;-0.09;100.00
67931;BME280;63902;52.000;5.954;2023-03-03T04:03:14;102117.25;;;-0.08;100.00
67931;BME280;63902;52.000;5.954;2023-03-03T04:04:15;102119.00;;;-0.07;100.00
67931;BME280;63902;52.000;5.954;2023-03-03T04:05:16;102115.53;;;-0.06;100.00
67931;BME280;63902;52.000;5.954;2023-03-03T04:06:16;102119.88;;;-0.07;100.00
67931;BME280;63902;52.000;5.954;2023-03-03T04:07:17;102110.31;;;-0.08;100.00
67931;BME280;63902;52.000;5.954;2023-03-03T04:08:17;102102.34;;;-0.12;100.00
67931;BME280;63902;52.000;5.954;2023-03-03T04:09:18;102108.59;;;-0.06;100.00
67931;BME280;63902;52.000;5.954;2023-03-03T04:10:18;102112.09;;;-0.05;100.00
67931;BME280;63902;52.000;5.954;2023-03-03T04:11:18;102105.09;;;-0.08;100.00
67931;BME280;63902;52.000;5.954;2023-03-03T04:12:19;102100.69;;;-0.09;100.00
67931;BME280;63902;52.000;5.954;2023-03-03T04:13:21;102116.41;;;-0.06;100.00
67931;BME280;63902;52.000;5.954;2023-03-03T04:14:21;102108.63;;;-0.04;100.00
67931;BME280;63902;52.000;5.954;2023-03-03T04:15:22;102103.41;;;-0.04;100.00
67931;BME280;63902;52.000;5.954;2023-03-03T04:16:22;102113.00;;;-0.03;100.00
67931;BME280;63902;52.000;5.954;2023-03-03T04:17:23;102115.59;;;-0.03;100.00
67931;BME280;63902;52.000;5.954;2023-03-03T04:18:23;102106.94;;;-0.02;100.00
67931;BME280;63902;52.000;5.954;2023-03-03T04:19:24;102114.78;;;-0.02;100.00
67931;BME280;63902;52.000;5.954;2023-03-03T04:20:24;102116.53;;;-0.01;100.00
67931;BME280;63902;52.000;5.954;2023-03-03T04:21:25;102118.25;;;-0.02;100.00
67931;BME280;63902;52.000;5.954;2023-03-03T04:22:25;102107.81;;;-0.02;100.00
67931;BME280;63902;52.000;5.954;2023-03-03T04:23:26;102105.09;;;-0.06;100.00
67931;BME280;63902;52.000;5.954;2023-03-03T04:24:26;102109.56;;;-0.02;100.00
67931;BME280;63902;52.000;5.954;2023-03-03T04:25:27;102116.53;;;-0.01;100.00
67931;BME280;63902;52.000;5.954;2023-03-03T04:26:27;102106.94;;;-0.02;100.00
67931;BME280;63902;52.000;5.954;2023-03-03T04:27:28;102104.28;;;-0.05;100.00
67931;BME280;63902;52.000;5.954;2023-03-03T04:28:29;102086.72;;;-0.12;99.98
67931;BME280;63902;52.000;5.954;2023-03-03T04:29:30;102099.88;;;-0.06;100.00
67931;BME280;63902;52.000;5.954;2023-03-03T04:30:30;102117.44;;;0.01;100.00
67931;BME280;63902;52.000;5.954;2023-03-03T04:31:31;102117.44;;;0.01;100.00
67931;BME280;63902;52.000;5.954;2023-03-03T04:32:32;102116.56;;;0.01;100.00
67931;BME280;63902;52.000;5.954;2023-03-03T04:33:32;102118.31;;;0.02;99.69
67931;BME280;63902;52.000;5.954;2023-03-03T04:34:33;102119.19;;;0.02;99.61
67931;BME280;63902;52.000;5.954;2023-03-03T04:35:34;102120.06;;;0.03;99.99
67931;BME280;63902;52.000;5.954;2023-03-03T04:36:34;102118.38;;;0.03;100.00
67931;BME280;63902;52.000;5.954;2023-03-03T04:37:35;102114.00;;;0.02;100.00
67931;BME280;63902;52.000;5.954;2023-03-03T04:38:36;102117.47;;;0.03;100.00
67931;BME280;63902;52.000;5.954;2023-03-03T04:39:37;102109.56;;;-0.02;100.00
67931;BME280;63902;52.000;5.954;2023-03-03T04:40:39;102099.88;;;-0.06;100.00
67931;BME280;63902;52.000;5.954;2023-03-03T04:41:40;102090.25;;;-0.10;99.79
67931;BME280;63902;52.000;5.954;2023-03-03T04:42:40;102109.69;;;0.04;99.80
67931;BME280;63902;52.000;5.954;2023-03-03T04:43:42;102113.19;;;0.05;99.81
67931;BME280;63902;52.000;5.954;2023-03-03T04:44:43;102101.75;;;-0.01;99.52
67931;BME280;63902;52.000;5.954;2023-03-03T04:45:43;102108.84;;;0.05;99.24
67931;BME280;63902;52.000;5.954;2023-03-03T04:46:44;102115.84;;;0.06;99.32
67931;BME280;63902;52.000;5.954;2023-03-03T04:47:44;102110.56;;;0.03;99.39
67931;BME280;63902;52.000;5.954;2023-03-03T04:48:45;102108.84;;;0.05;99.78
67931;BME280;63902;52.000;5.954;2023-03-03T04:49:45;102096.53;;;-0.01;99.37
67931;BME280;63902;52.000;5.954;2023-03-03T04:50:46;102100.84;;;-0.03;99.57
67931;BME280;63902;52.000;5.954;2023-03-03T04:51:46;102104.38;;;-0.01;99.55
67931;BME280;63902;52.000;5.954;2023-03-03T04:52:47;102114.97;;;0.07;99.44
67931;BME280;63902;52.000;5.954;2023-03-03T04:53:47;102074.41;;;-0.19;98.97
67931;BME280;63902;52.000;5.954;2023-03-03T04:54:48;102114.97;;;0.07;99.38
67931;BME280;63902;52.000;5.954;2023-03-03T04:55:49;102115.84;;;0.08;99.45
67931;BME280;63902;52.000;5.954;2023-03-03T04:56:49;102108.78;;;0.02;100.00
67931;BME280;63902;52.000;5.954;2023-03-03T04:57:50;102121.94;;;0.08;100.00
67931;BME280;63902;52.000;5.954;2023-03-03T04:58:52;102110.50;;;0.02;100.00
67931;BME280;63902;52.000;5.954;2023-03-03T04:59:52;102098.09;;;-0.09;100.00
67931;BME280;63902;52.000;5.954;2023-03-03T05:00:54;102120.19;;;0.07;100.00
67931;BME280;63902;52.000;5.954;2023-03-03T05:01:55;102126.28;;;0.08;100.00
67931;BME280;63902;52.000;5.954;2023-03-03T05:02:56;102114.84;;;0.01;100.00
67931;BME280;63902;52.000;5.954;2023-03-03T05:03:56;102120.19;;;0.06;100.00
67931;BME280;63902;52.000;5.954;2023-03-03T05:04:56;102128.00;;;0.06;100.00
67931;BME280;63902;52.000;5.954;2023-03-03T05:05:57;102121.00;;;0.05;100.00
67931;BME280;63902;52.000;5.954;2023-03-03T05:06:57;102125.41;;;0.07;100.00
67931;BME280;63902;52.000;5.954;2023-03-03T05:07:58;102125.41;;;0.07;100.00
67931;BME280;63902;52.000;5.954;2023-03-03T05:08:58;102128.91;;;0.08;99.93
67931;BME280;63902;52.000;5.954;2023-03-03T05:09:59;102121.06;;;0.08;99.87
67931;BME280;63902;52.000;5.954;2023-03-03T05:10:59;102124.56;;;0.08;99.92
67931;BME280;63902;52.000;5.954;2023-03-03T05:12:00;102127.16;;;0.08;99.65
67931;BME280;63902;52.000;5.954;2023-03-03T05:13:00;102122.81;;;0.07;99.62
67931;BME280;63902;52.000;5.954;2023-03-03T05:14:02;102124.59;;;0.10;99.48
67931;BME280;63902;52.000;5.954;2023-03-03T05:15:03;102104.28;;;-0.04;99.11
67931;BME280;63902;52.000;5.954;2023-03-03T05:16:05;102133.31;;;0.10;99.57
67931;BME280;63902;52.000;5.954;2023-03-03T05:17:05;102118.47;;;0.08;99.63
67931;BME280;63902;52.000;5.954;2023-03-03T05:18:06;102127.25;;;0.11;100.00
67931;BME280;63902;52.000;5.954;2023-03-03T05:19:06;102121.94;;;0.08;100.00
67931;BME280;63902;52.000;5.954;2023-03-03T05:20:08;102124.59;;;0.10;99.97
67931;BME280;63902;52.000;5.954;2023-03-03T05:21:09;102119.28;;;0.05;99.75